Mexican Water, Arizona
Current Conditions -  °F | °C
As of 11:53 AM on Thursday 30 Oct 2014 (Local Time) from KCEZ Reporting Station
Clear Clear  
Wind Chill: 60°   Ceiling: Unl
Heat Index: 60°   Visibility: 10mi
Dew Point: 19°   Wind: 7mph
Humidity: 20%   Direction: 220°SW
Pressure: 30.34"   Gusts: NA
Location:  36.7518°N, 109.365°W
Report Text: KCEZ 301753Z AUTO 22006KT 10SM CLR 16/M07 A3034 RMK AO2 SLP243 T01561072 10156 21022 58007
Loading
Personal Weather Stations






























Interactive Weather Map
Tropical Storm Tracking
New forecast layout! Learn more

10-Day Weather Forecast

Advertisements
Track Severe Weather on mobile